aviador You're here:

KCDI Decoded Metar

in
Report Time2018-05-20 22:55:00
UTC Time2018-05-20 23:10:49
Flight Rules vfr VFR
Wind350° at 05 kt
W.Decomp.*RWY 04: 3.2 kt HW 3.8 kt LCW
W.Rank350° ranks 19
Current wind is below 350° avg. (5.1)
Visibility9999 m
Phenomena:N/A
Clouds:N/A
Expected CloudBase > 2,800 ft AGL from Temp-Dew spread
CeilingNone
Temp24°C
Dew Point17°C (65% RH)
QNH1019 hPa
Raw Report
KCDI 202255Z AUTO 35005KT 10SM CLR 24/17 A3009 RMK AO2
T02410166=

Extra information for KCDI:More info

Social comments